Time;durP1;ratioP1;P1;durP2;ratioP2;P2;SDS_P1;SDS_P2;PMS_P1;PMS_P2;Temp;Humidity;BMP_temperature;BMP_pressure;BME280_temperature;BME280_humidity;BME280_pressure;Samples;Min_cycle;Max_cycle;Signal;HPM_P1;HPM_P2
2023/09/13 00:00:46;;;;;;;72.10;40.17;;;19.40;99.90;;;;;;4989529;28;20454;-91
2023/09/13 00:03:12;;;;;;;60.80;37.67;;;19.40;99.90;;;;;;4990194;28;20027;-91
2023/09/13 00:05:38;;;;;;;68.15;40.33;;;19.40;99.90;;;;;;4990138;28;20816;-92
2023/09/13 00:08:03;;;;;;;54.50;38.17;;;19.30;99.90;;;;;;4988660;28;20023;-91
2023/09/13 00:10:29;;;;;;;60.30;37.45;;;19.30;99.90;;;;;;4967989;28;20030;-90
2023/09/13 00:12:54;;;;;;;60.50;36.28;;;19.30;99.90;;;;;;4987949;28;20093;-90
2023/09/13 00:15:20;;;;;;;54.30;37.30;;;19.30;99.90;;;;;;4989116;28;20054;-90
2023/09/13 00:17:45;;;;;;;54.38;37.47;;;19.30;99.90;;;;;;4989808;28;20394;-90
2023/09/13 00:20:11;;;;;;;60.88;38.65;;;19.30;99.90;;;;;;4972361;28;20577;-91
2023/09/13 00:22:37;;;;;;;57.70;37.65;;;19.30;99.90;;;;;;4989314;28;20037;-91
2023/09/13 00:25:03;;;;;;;66.22;39.17;;;19.30;99.90;;;;;;4993686;28;20026;-92
2023/09/13 00:27:28;;;;;;;58.13;38.47;;;19.30;99.90;;;;;;5008992;28;20030;-90
2023/09/13 00:29:54;;;;;;;68.25;39.45;;;19.30;99.90;;;;;;4983287;28;20061;-91
2023/09/13 00:32:23;;;;;;;58.60;38.22;;;19.20;99.90;;;;;;4972885;28;20034;-91
2023/09/13 00:34:48;;;;;;;60.15;38.58;;;19.30;99.90;;;;;;4988994;28;20031;-90
2023/09/13 00:37:14;;;;;;;63.00;38.65;;;19.20;99.90;;;;;;4989078;28;20505;-90
2023/09/13 00:39:39;;;;;;;60.00;37.70;;;19.20;99.90;;;;;;4988802;28;20031;-90
2023/09/13 00:42:05;;;;;;;65.07;38.58;;;19.20;99.90;;;;;;4989391;28;20069;-91
2023/09/13 00:44:30;;;;;;;64.20;36.80;;;19.20;99.90;;;;;;4988042;28;20054;-91
2023/09/13 00:46:56;;;;;;;63.72;38.67;;;19.20;99.90;;;;;;4986704;28;20118;-91
2023/09/13 00:49:21;;;;;;;64.70;39.38;;;19.20;99.90;;;;;;4988110;28;20129;-90
2023/09/13 00:51:49;;;;;;;62.65;38.78;;;19.20;99.90;;;;;;4972383;28;20022;-91
2023/09/13 00:54:14;;;;;;;69.82;40.47;;;19.10;99.90;;;;;;4988378;28;20031;-90
2023/09/13 00:56:41;;;;;;;71.07;38.63;;;19.10;99.90;;;;;;4988855;28;20030;-91
2023/09/13 00:59:09;;;;;;;63.97;39.00;;;19.10;99.90;;;;;;4988735;28;20073;-90
2023/09/13 01:01:35;;;;;;;68.60;37.85;;;19.00;99.90;;;;;;4989228;28;20642;-89
2023/09/13 01:04:01;;;;;;;63.03;35.90;;;19.00;99.90;;;;;;4972089;28;20118;-91
2023/09/13 01:06:27;;;;;;;61.08;35.80;;;18.90;99.90;;;;;;4973031;28;20085;-91
2023/09/13 01:08:52;;;;;;;70.10;40.28;;;18.90;99.90;;;;;;4987553;28;20419;-89
2023/09/13 01:11:19;;;;;;;70.25;39.20;;;18.80;99.90;;;;;;4988216;28;20034;-91
2023/09/13 01:13:45;;;;;;;71.72;42.55;;;18.90;99.90;;;;;;4988772;28;20513;-90
2023/09/13 01:16:23;;;;;;;84.63;43.67;;;18.80;99.90;;;;;;4986101;28;20023;-91
2023/09/13 01:18:56;;;;;;;74.68;43.00;;;18.80;99.90;;;;;;4988507;28;20096;-90
2023/09/13 01:22:06;;;;;;;78.05;43.78;;;18.90;99.90;;;;;;4988593;28;20419;-90
2023/09/13 01:25:11;;;;;;;78.35;42.60;;;18.90;99.90;;;;;;4987360;28;20042;-91
2023/09/13 01:27:56;;;;;;;80.35;44.03;;;18.90;99.90;;;;;;4958334;28;20104;-90
2023/09/13 01:30:23;;;;;;;77.28;43.10;;;18.90;99.90;;;;;;4983928;28;20057;-90
2023/09/13 01:32:51;;;;;;;81.28;44.40;;;18.90;99.90;;;;;;4992228;28;20097;-91
2023/09/13 01:35:17;;;;;;;79.10;44.90;;;19.00;99.90;;;;;;4992279;28;20037;-91
2023/09/13 01:37:43;;;;;;;91.93;46.97;;;19.00;99.90;;;;;;4991911;28;20035;-91
2023/09/13 01:40:09;;;;;;;77.13;45.20;;;19.00;99.90;;;;;;4991876;28;20027;-90
2023/09/13 01:42:38;;;;;;;83.50;44.63;;;19.00;99.90;;;;;;4992137;28;20027;-90
2023/09/13 01:45:07;;;;;;;82.30;44.38;;;19.00;99.90;;;;;;4991111;28;20041;-91
2023/09/13 01:47:33;;;;;;;73.45;43.00;;;19.00;99.90;;;;;;4984017;28;20552;-90
2023/09/13 01:49:59;;;;;;;84.05;42.70;;;19.00;99.90;;;;;;4991385;28;20059;-91
2023/09/13 01:52:25;;;;;;;72.68;41.17;;;19.00;99.90;;;;;;4975322;28;20168;-90
2023/09/13 01:54:50;;;;;;;73.75;41.67;;;19.00;99.90;;;;;;4974955;28;20117;-90
2023/09/13 01:57:16;;;;;;;77.03;42.55;;;19.10;99.90;;;;;;4975775;28;20045;-90
2023/09/13 01:59:42;;;;;;;75.15;41.47;;;19.10;99.90;;;;;;4975445;28;20031;-90
2023/09/13 02:02:07;;;;;;;75.60;41.83;;;19.10;99.90;;;;;;4991264;28;20033;-90
2023/09/13 02:04:33;;;;;;;79.20;42.08;;;19.10;99.90;;;;;;4991982;28;20023;-90
2023/09/13 02:07:03;;;;;;;76.53;41.65;;;19.10;99.90;;;;;;4975477;28;20034;-89
2023/09/13 02:09:28;;;;;;;76.20;43.53;;;19.10;99.90;;;;;;4991446;28;20066;-89
2023/09/13 02:11:54;;;;;;;75.65;42.17;;;19.10;99.90;;;;;;4991818;28;20483;-90
2023/09/13 02:14:19;;;;;;;70.72;40.75;;;19.10;99.90;;;;;;4975467;28;20027;-90
2023/09/13 02:16:45;;;;;;;71.97;41.33;;;19.20;99.90;;;;;;4990561;28;20045;-91
2023/09/13 02:19:10;;;;;;;77.88;42.40;;;19.20;99.90;;;;;;4991330;28;20034;-91
2023/09/13 02:21:36;;;;;;;77.85;42.75;;;19.10;99.90;;;;;;4975499;28;20039;-92
2023/09/13 02:24:02;;;;;;;83.43;41.85;;;19.20;99.90;;;;;;4990604;28;20074;-91
2023/09/13 02:26:27;;;;;;;73.05;42.40;;;19.20;99.90;;;;;;4991708;28;20038;-92
2023/09/13 02:28:53;;;;;;;68.22;41.08;;;19.20;99.90;;;;;;4991519;28;20034;-91
2023/09/13 02:31:23;;;;;;;72.35;38.78;;;19.10;99.90;;;;;;4991269;28;20483;-91
2023/09/13 02:33:49;;;;;;;75.28;41.53;;;19.20;99.90;;;;;;4991800;28;20065;-91
2023/09/13 02:36:15;;;;;;;81.07;40.95;;;19.20;99.90;;;;;;4974377;28;20055;-91
2023/09/13 02:38:40;;;;;;;75.28;41.50;;;19.10;99.90;;;;;;4975089;28;20158;-91
2023/09/13 02:41:06;;;;;;;75.25;41.72;;;19.20;99.90;;;;;;4991378;28;20034;-91
2023/09/13 02:43:31;;;;;;;83.63;44.30;;;19.20;99.90;;;;;;4990841;28;20487;-90
2023/09/13 02:45:57;;;;;;;89.75;43.85;;;19.20;99.90;;;;;;4990476;28;20122;-91
2023/09/13 02:48:22;;;;;;;84.43;44.42;;;19.30;99.90;;;;;;4973394;28;20062;-90
2023/09/13 02:50:48;;;;;;;89.53;46.03;;;19.20;99.90;;;;;;4973661;28;20086;-91
2023/09/13 02:53:13;;;;;;;85.50;45.55;;;19.20;99.90;;;;;;4989719;28;20065;-91
2023/09/13 02:55:39;;;;;;;97.03;47.03;;;19.20;99.90;;;;;;4991124;28;20029;-91
2023/09/13 02:58:05;;;;;;;91.43;47.25;;;19.20;99.90;;;;;;4974520;28;20434;-91
2023/09/13 03:00:31;;;;;;;96.35;49.38;;;19.20;99.90;;;;;;4982767;28;20034;-91
2023/09/13 03:02:58;;;;;;;92.30;45.42;;;19.20;99.90;;;;;;4990779;28;20070;-91
2023/09/13 03:05:23;;;;;;;103.97;51.72;;;19.20;99.90;;;;;;4974227;28;20031;-91
2023/09/13 03:07:49;;;;;;;102.22;49.30;;;19.20;99.90;;;;;;4974992;28;20105;-90
2023/09/13 03:10:15;;;;;;;103.60;52.75;;;19.20;99.90;;;;;;4974877;28;20031;-91
2023/09/13 03:12:40;;;;;;;107.28;53.13;;;19.20;99.90;;;;;;4974338;28;20050;-91
2023/09/13 03:15:06;;;;;;;109.13;55.22;;;19.20;99.90;;;;;;4990382;28;20041;-91
2023/09/13 03:17:31;;;;;;;111.63;54.63;;;19.20;99.90;;;;;;4990164;28;20033;-90
2023/09/13 03:19:57;;;;;;;106.40;51.97;;;19.20;99.90;;;;;;4972717;28;20027;-89
2023/09/13 03:22:23;;;;;;;113.25;52.60;;;19.20;99.90;;;;;;4989593;28;20023;-91
2023/09/13 03:24:48;;;;;;;116.22;55.33;;;19.20;99.90;;;;;;4974500;28;20027;-90
2023/09/13 03:27:14;;;;;;;104.60;53.63;;;19.20;99.90;;;;;;4990045;28;20031;-90
2023/09/13 03:29:39;;;;;;;116.75;54.88;;;19.20;99.90;;;;;;4990290;28;20039;-90
2023/09/13 03:32:06;;;;;;;105.13;49.53;;;19.10;99.90;;;;;;4990205;28;20070;-90
2023/09/13 03:34:32;;;;;;;106.07;51.55;;;19.10;99.90;;;;;;4990547;28;20030;-90
2023/09/13 03:36:57;;;;;;;103.95;49.38;;;19.10;99.90;;;;;;4990051;28;20078;-90
2023/09/13 03:39:25;;;;;;;101.45;47.53;;;19.10;99.90;;;;;;4974069;28;20035;-89
2023/09/13 03:41:51;;;;;;;115.45;53.22;;;19.00;99.90;;;;;;4996976;28;20022;-90
2023/09/13 03:44:16;;;;;;;106.20;51.25;;;19.00;99.90;;;;;;5002198;28;20015;-90
2023/09/13 03:46:42;;;;;;;107.55;51.35;;;18.90;99.90;;;;;;4993627;28;20027;-90
2023/09/13 03:49:08;;;;;;;107.28;47.85;;;18.90;99.90;;;;;;4980983;28;20511;-90
2023/09/13 03:51:34;;;;;;;103.43;48.55;;;18.90;99.90;;;;;;4972690;28;20031;-91
2023/09/13 03:53:59;;;;;;;110.75;48.97;;;18.90;99.90;;;;;;4986661;28;20697;-89
2023/09/13 03:56:25;;;;;;;107.72;49.38;;;18.90;99.90;;;;;;4965634;28;20037;-88
2023/09/13 03:58:50;;;;;;;115.65;52.55;;;18.90;99.90;;;;;;4972592;28;20484;-89
2023/09/13 04:01:16;;;;;;;108.28;49.95;;;18.90;99.90;;;;;;4989210;28;20027;-89
2023/09/13 04:03:42;;;;;;;120.65;52.85;;;18.90;99.90;;;;;;4989678;28;20074;-88
2023/09/13 04:06:07;;;;;;;113.82;50.35;;;18.80;99.90;;;;;;4988884;28;20027;-88
2023/09/13 04:08:33;;;;;;;113.10;50.58;;;18.80;99.90;;;;;;4968041;28;20039;-88
2023/09/13 04:10:58;;;;;;;114.75;51.90;;;18.80;99.90;;;;;;4973222;28;20073;-89
2023/09/13 04:13:24;;;;;;;110.72;50.40;;;18.80;99.90;;;;;;4989269;28;20138;-88
2023/09/13 04:15:49;;;;;;;119.57;52.95;;;18.70;99.90;;;;;;4989569;28;20034;-89
2023/09/13 04:18:15;;;;;;;112.95;52.90;;;18.70;99.90;;;;;;4988946;28;20558;-89
2023/09/13 04:20:46;;;;;;;103.75;49.75;;;18.60;99.90;;;;;;4989594;28;20118;-89
2023/09/13 04:23:12;;;;;;;112.47;52.22;;;18.50;99.90;;;;;;4988906;28;20033;-89
2023/09/13 04:25:37;;;;;;;101.95;49.25;;;18.50;99.90;;;;;;4973404;28;20450;-89
2023/09/13 04:28:03;;;;;;;113.97;51.22;;;18.50;99.90;;;;;;4988535;28;20155;-89
2023/09/13 04:30:29;;;;;;;116.60;50.47;;;18.40;99.90;;;;;;4989420;28;20148;-89
2023/09/13 04:32:54;;;;;;;111.03;50.08;;;18.40;99.90;;;;;;4989097;28;20019;-88
2023/09/13 04:35:21;;;;;;;114.53;52.75;;;18.30;99.90;;;;;;4988118;28;20031;-89
2023/09/13 04:37:46;;;;;;;111.65;52.72;;;18.30;99.90;;;;;;4989304;28;20027;-89
2023/09/13 04:40:13;;;;;;;118.82;55.30;;;18.30;99.90;;;;;;4988271;28;20046;-89
2023/09/13 04:42:50;;;;;;;112.80;50.97;;;18.20;99.90;;;;;;4989782;28;20061;-89
2023/09/13 04:45:15;;;;;;;121.97;56.03;;;18.20;99.90;;;;;;4989054;28;20031;-89
2023/09/13 04:47:41;;;;;;;130.85;56.67;;;18.20;99.90;;;;;;4985979;28;20110;-89
2023/09/13 04:50:07;;;;;;;124.78;54.58;;;18.10;99.90;;;;;;4970934;28;20045;-89
2023/09/13 04:52:32;;;;;;;119.22;54.13;;;18.10;99.90;;;;;;4985810;28;20563;-89
2023/09/13 04:54:58;;;;;;;130.10;56.80;;;18.10;99.90;;;;;;4970415;28;20109;-89
2023/09/13 04:57:23;;;;;;;121.95;53.47;;;18.00;99.90;;;;;;4984507;28;20027;-89
2023/09/13 04:59:49;;;;;;;160.15;63.28;;;18.00;99.90;;;;;;4968819;28;20045;-90
2023/09/13 05:02:15;;;;;;;134.05;57.42;;;17.90;99.90;;;;;;4989044;28;20018;-89
2023/09/13 05:04:41;;;;;;;131.27;54.58;;;17.90;99.90;;;;;;4989168;28;20436;-89
2023/09/13 05:07:07;;;;;;;128.68;54.22;;;17.90;99.90;;;;;;4987186;28;20041;-90
2023/09/13 05:09:34;;;;;;;131.13;55.28;;;17.90;99.90;;;;;;4971989;28;20049;-89
2023/09/13 05:12:00;;;;;;;129.07;57.42;;;17.90;99.90;;;;;;4983828;28;20131;-89
2023/09/13 05:14:25;;;;;;;149.00;59.53;;;17.90;99.90;;;;;;4988021;28;20114;-90
2023/09/13 05:16:51;;;;;;;141.48;57.33;;;18.00;99.90;;;;;;4973201;28;20057;-89
2023/09/13 05:19:18;;;;;;;137.07;53.55;;;18.00;99.90;;;;;;4987702;28;20060;-89
2023/09/13 05:21:43;;;;;;;125.63;52.15;;;18.00;99.90;;;;;;4971754;28;20023;-89
2023/09/13 05:24:09;;;;;;;132.27;55.05;;;18.00;99.90;;;;;;4983046;28;20027;-89
2023/09/13 05:26:35;;;;;;;146.40;56.50;;;18.00;99.90;;;;;;4972280;28;20023;-89
2023/09/13 05:29:02;;;;;;;132.15;53.25;;;18.00;99.90;;;;;;4972051;28;20039;-89
2023/09/13 05:31:28;;;;;;;139.15;56.40;;;18.00;99.90;;;;;;4987133;28;20019;-89
2023/09/13 05:33:53;;;;;;;139.90;56.30;;;18.00;99.90;;;;;;4987682;28;20118;-89
2023/09/13 05:36:19;;;;;;;142.95;56.13;;;18.00;99.90;;;;;;4987192;28;20027;-90
2023/09/13 05:38:44;;;;;;;142.93;56.78;;;17.90;99.90;;;;;;4965635;28;20038;-91
2023/09/13 05:41:11;;;;;;;130.32;56.28;;;17.90;99.90;;;;;;4982231;28;20494;-91
2023/09/13 05:43:41;;;;;;;127.75;53.67;;;18.00;99.90;;;;;;4975524;28;20031;-90
2023/09/13 05:46:08;;;;;;;132.77;52.92;;;18.00;99.90;;;;;;4979333;28;20027;-91
2023/09/13 05:48:36;;;;;;;144.20;54.97;;;18.00;99.90;;;;;;4988232;28;20027;-90
2023/09/13 05:51:03;;;;;;;127.57;52.38;;;18.10;99.90;;;;;;4987692;28;20069;-91
2023/09/13 05:53:30;;;;;;;132.55;54.67;;;18.10;99.90;;;;;;4989232;28;20031;-96
2023/09/13 05:55:56;;;;;;;125.80;53.03;;;18.10;99.90;;;;;;4990009;28;20235;-96
2023/09/13 05:58:21;;;;;;;135.23;56.70;;;18.20;99.90;;;;;;4988728;28;20396;-92
2023/09/13 06:00:49;;;;;;;137.10;57.00;;;18.20;99.90;;;;;;4962426;28;20027;-93
2023/09/13 06:03:19;;;;;;;128.80;55.53;;;18.20;99.90;;;;;;4986504;28;20027;-95
2023/09/13 06:05:49;;;;;;;136.40;56.63;;;18.20;99.90;;;;;;4986162;28;20031;-91
2023/09/13 06:08:15;;;;;;;137.18;54.25;;;18.20;99.90;;;;;;4980916;28;20057;-91
2023/09/13 06:10:40;;;;;;;131.45;54.40;;;18.30;99.90;;;;;;4969300;28;20041;-92
2023/09/13 06:13:07;;;;;;;133.77;55.40;;;18.40;99.90;;;;;;4987103;28;20086;-91
2023/09/13 06:15:32;;;;;;;141.63;57.00;;;18.30;99.90;;;;;;4964530;28;20027;-92
2023/09/13 06:17:58;;;;;;;119.35;52.50;;;18.50;99.90;;;;;;4987528;28;20086;-91
2023/09/13 06:20:23;;;;;;;132.88;56.72;;;18.50;99.90;;;;;;4988148;28;20030;-93
2023/09/13 06:22:49;;;;;;;126.90;54.95;;;18.50;99.90;;;;;;4985605;28;20131;-92
2023/09/13 06:25:17;;;;;;;119.60;51.65;;;18.50;99.90;;;;;;4975140;28;20027;-90
2023/09/13 06:27:43;;;;;;;120.40;51.65;;;18.50;99.90;;;;;;4993587;28;20023;-92
2023/09/13 06:30:09;;;;;;;124.32;54.08;;;18.50;99.90;;;;;;4991237;28;20038;-90
2023/09/13 06:32:37;;;;;;;126.50;54.55;;;18.60;99.90;;;;;;4987889;28;20038;-88
2023/09/13 06:35:02;;;;;;;133.15;55.42;;;18.60;99.90;;;;;;4988182;28;20035;-88
2023/09/13 06:37:28;;;;;;;117.18;50.25;;;18.70;99.90;;;;;;4991269;28;20067;-89
2023/09/13 06:39:54;;;;;;;119.03;54.08;;;18.80;99.90;;;;;;4990860;28;20027;-90
2023/09/13 06:42:20;;;;;;;121.90;55.35;;;18.80;99.90;;;;;;4989849;28;20031;-89
2023/09/13 06:44:48;;;;;;;121.25;52.03;;;18.90;99.90;;;;;;4986993;28;20042;-89
2023/09/13 06:47:14;;;;;;;109.97;52.10;;;18.90;99.90;;;;;;4972081;28;20027;-89
2023/09/13 06:49:39;;;;;;;114.05;50.47;;;19.00;99.90;;;;;;4990523;28;20042;-89
2023/09/13 06:52:05;;;;;;;111.80;52.65;;;19.00;99.90;;;;;;4972448;28;20053;-89
2023/09/13 06:54:30;;;;;;;96.90;46.60;;;19.10;99.90;;;;;;4987577;28;20513;-89
2023/09/13 06:56:56;;;;;;;107.57;48.80;;;19.10;99.90;;;;;;4991613;28;20058;-88
2023/09/13 06:59:21;;;;;;;105.30;48.25;;;19.10;99.90;;;;;;4990395;28;20060;-88
2023/09/13 07:01:47;;;;;;;109.93;48.10;;;19.00;99.90;;;;;;4973163;28;20037;-89
2023/09/13 07:04:17;;;;;;;93.85;45.78;;;18.90;99.90;;;;;;4970351;28;20023;-89
2023/09/13 07:06:43;;;;;;;79.80;39.03;;;18.90;99.90;;;;;;4983703;28;20098;-88
2023/09/13 07:09:09;;;;;;;64.35;31.88;;;18.90;99.90;;;;;;4984570;28;20126;-89
2023/09/13 07:11:35;;;;;;;34.63;18.63;;;18.80;99.90;;;;;;4986663;28;20027;-87
2023/09/13 07:14:00;;;;;;;16.98;10.52;;;18.70;99.90;;;;;;4989359;28;20042;-89
2023/09/13 07:16:26;;;;;;;17.02;7.95;;;18.50;99.90;;;;;;4994968;28;20118;-89
2023/09/13 07:18:54;;;;;;;6.80;3.75;;;18.30;99.90;;;;;;4991567;28;20053;-88
2023/09/13 07:21:19;;;;;;;2.55;0.82;;;18.10;99.90;;;;;;4972329;28;20483;-89
2023/09/13 07:23:45;;;;;;;2.67;0.40;;;17.90;99.90;;;;;;4975291;28;20038;-87
2023/09/13 07:26:11;;;;;;;1.50;0.30;;;17.70;99.90;;;;;;4974229;28;20050;-87
2023/09/13 07:28:37;;;;;;;3.03;0.20;;;17.50;99.90;;;;;;4968953;28;20053;-87
2023/09/13 07:31:09;;;;;;;0.43;0.10;;;17.40;99.90;;;;;;4977474;28;20030;-88
2023/09/13 07:33:35;;;;;;;0.90;0.13;;;17.30;99.90;;;;;;4974254;28;20033;-88
2023/09/13 07:36:01;;;;;;;1.30;0.10;;;17.30;99.90;;;;;;4991939;28;20023;-88
2023/09/13 07:38:27;;;;;;;0.68;0.17;;;17.20;99.90;;;;;;4990621;28;20044;-89
2023/09/13 07:40:53;;;;;;;0.47;0.10;;;17.10;99.90;;;;;;4989277;28;20475;-88
2023/09/13 07:43:18;;;;;;;0.93;0.13;;;17.00;99.90;;;;;;4970921;28;20038;-88
2023/09/13 07:45:45;;;;;;;1.88;0.20;;;16.90;99.90;;;;;;4990294;28;20041;-89
2023/09/13 07:48:11;;;;;;;0.80;0.10;;;16.90;99.90;;;;;;4984464;28;20530;-89
2023/09/13 07:50:40;;;;;;;1.73;0.20;;;16.80;99.90;;;;;;4987337;28;20054;-89
2023/09/13 07:53:12;;;;;;;1.42;0.10;;;16.90;99.90;;;;;;4970073;28;20030;-89
2023/09/13 07:55:38;;;;;;;;;;;16.90;99.90;;;;;;4974845;28;20041;-88
2023/09/13 07:58:05;;;;;;;1.27;0.10;;;16.80;99.90;;;;;;4973374;28;19910;-88
2023/09/13 08:00:31;;;;;;;1.98;0.25;;;16.80;99.90;;;;;;4990730;28;20022;-89
2023/09/13 08:02:58;;;;;;;0.47;0.10;;;16.80;99.90;;;;;;4973308;28;20762;-88
2023/09/13 08:05:24;;;;;;;0.98;0.30;;;16.80;99.90;;;;;;4976753;28;20037;-88
2023/09/13 08:07:49;;;;;;;2.35;0.20;;;16.90;99.90;;;;;;4992787;28;20026;-87
2023/09/13 08:10:15;;;;;;;1.27;0.20;;;17.00;99.90;;;;;;4978069;28;20045;-90
2023/09/13 08:12:41;;;;;;;0.50;0.10;;;17.10;99.90;;;;;;4978645;28;20082;-91
2023/09/13 08:15:07;;;;;;;2.60;0.20;;;17.20;99.90;;;;;;4993400;28;20026;-90
2023/09/13 08:17:33;;;;;;;1.40;0.20;;;17.30;99.90;;;;;;4993825;28;20031;-90
2023/09/13 08:20:05;;;;;;;0.90;0.10;;;17.40;99.90;;;;;;4980822;28;20035;-89
2023/09/13 08:22:30;;;;;;;0.80;0.20;;;17.40;99.90;;;;;;4991768;28;20054;-88
2023/09/13 08:24:56;;;;;;;2.28;0.20;;;17.30;99.90;;;;;;4990448;28;20429;-89
2023/09/13 08:27:21;;;;;;;0.82;0.20;;;17.30;99.90;;;;;;4991238;28;20034;-88
2023/09/13 08:29:47;;;;;;;0.93;0.20;;;17.20;99.90;;;;;;4988189;28;20474;-89
2023/09/13 08:32:12;;;;;;;3.58;0.35;;;17.10;99.90;;;;;;4983946;28;20030;-88
2023/09/13 08:34:38;;;;;;;1.33;0.20;;;17.10;99.90;;;;;;4974986;28;20140;-89
2023/09/13 08:37:04;;;;;;;1.40;0.20;;;17.10;99.90;;;;;;4992681;28;20069;-89
2023/09/13 08:39:29;;;;;;;1.33;0.30;;;17.10;99.90;;;;;;4992658;28;20058;-88
2023/09/13 08:41:55;;;;;;;1.13;0.25;;;17.20;99.90;;;;;;4990202;28;20014;-87
2023/09/13 08:44:22;;;;;;;1.17;0.20;;;17.20;99.90;;;;;;4970943;28;20555;-88
2023/09/13 08:46:50;;;;;;;2.47;0.30;;;17.10;99.90;;;;;;4974987;28;20088;-86
2023/09/13 08:49:16;;;;;;;1.70;0.30;;;17.10;99.90;;;;;;4975414;28;20670;-86
2023/09/13 08:51:44;;;;;;;0.60;0.20;;;17.10;99.90;;;;;;4992136;28;20029;-86
2023/09/13 08:54:11;;;;;;;1.05;0.20;;;17.20;99.90;;;;;;4991376;28;20038;-86
2023/09/13 08:56:37;;;;;;;2.50;0.30;;;17.20;99.90;;;;;;4990877;28;20022;-86
2023/09/13 08:59:04;;;;;;;3.60;0.25;;;17.30;99.90;;;;;;4973454;28;20026;-86
2023/09/13 09:01:31;;;;;;;1.42;0.30;;;17.50;99.90;;;;;;4974874;28;20145;-86
2023/09/13 09:03:56;;;;;;;2.35;0.30;;;17.60;99.90;;;;;;4991824;28;20045;-86
2023/09/13 09:06:23;;;;;;;2.17;0.30;;;17.60;99.90;;;;;;4989240;28;20022;-86
2023/09/13 09:08:50;;;;;;;0.80;0.20;;;17.50;99.90;;;;;;4974088;28;20042;-86
2023/09/13 09:11:21;;;;;;;2.85;0.30;;;17.40;99.90;;;;;;4988502;28;20030;-86
2023/09/13 09:13:48;;;;;;;2.28;0.40;;;17.50;99.90;;;;;;4989794;28;20052;-87
2023/09/13 09:16:16;;;;;;;2.47;0.43;;;17.50;99.90;;;;;;4992361;28;20559;-86
2023/09/13 09:18:43;;;;;;;2.13;0.40;;;17.50;99.90;;;;;;4993478;28;20038;-85
2023/09/13 09:21:09;;;;;;;2.13;0.40;;;17.40;99.90;;;;;;4977480;28;20038;-85
2023/09/13 09:23:35;;;;;;;1.27;0.20;;;17.40;99.90;;;;;;4977205;28;20099;-85
2023/09/13 09:26:03;;;;;;;7.55;0.93;;;17.30;99.90;;;;;;4974602;28;20030;-85
2023/09/13 09:28:29;;;;;;;1.40;0.40;;;17.50;99.90;;;;;;4993629;28;20030;-86
2023/09/13 09:30:59;;;;;;;1.33;0.32;;;17.50;99.90;;;;;;4988636;28;20388;-86
2023/09/13 09:33:29;;;;;;;1.67;0.50;;;17.50;99.90;;;;;;4977341;28;20023;-86
2023/09/13 09:35:56;;;;;;;3.10;0.50;;;17.60;99.90;;;;;;4989926;28;20092;-87
2023/09/13 09:38:23;;;;;;;1.42;0.40;;;17.70;99.90;;;;;;4992047;28;20031;-87
2023/09/13 09:40:50;;;;;;;1.05;0.30;;;17.80;99.90;;;;;;4992846;28;20030;-87
2023/09/13 09:43:16;;;;;;;2.58;0.30;;;17.90;99.90;;;;;;4992705;28;20087;-86
2023/09/13 09:45:41;;;;;;;4.68;0.45;;;18.00;99.90;;;;;;4993043;28;20030;-86
2023/09/13 09:48:09;;;;;;;2.60;0.47;;;18.20;99.90;;;;;;4993180;28;20062;-87
2023/09/13 09:50:34;;;;;;;1.75;0.30;;;18.30;99.90;;;;;;4993915;28;20098;-85
2023/09/13 09:53:08;;;;;;;1.90;0.28;;;18.40;99.90;;;;;;4977854;28;20114;-86
2023/09/13 09:55:36;;;;;;;1.77;0.28;;;18.50;99.90;;;;;;4966570;28;20027;-87
2023/09/13 09:58:02;;;;;;;1.60;0.22;;;18.60;99.90;;;;;;4996666;28;20027;-86
2023/09/13 10:00:27;;;;;;;1.92;0.30;;;18.70;99.90;;;;;;4997543;28;20077;-86
2023/09/13 10:02:53;;;;;;;2.25;0.30;;;18.80;99.90;;;;;;4994901;28;20026;-86
2023/09/13 10:05:21;;;;;;;1.02;0.20;;;18.90;99.90;;;;;;4999542;28;20080;-87
2023/09/13 10:07:54;;;;;;;2.15;0.28;;;19.00;99.90;;;;;;4986226;28;20178;-86
2023/09/13 10:10:30;;;;;;;1.92;0.20;;;19.10;99.90;;;;;;4988829;28;20061;-87
2023/09/13 10:12:56;;;;;;;1.83;0.20;;;19.20;99.90;;;;;;4996986;28;20050;-86
2023/09/13 10:15:22;;;;;;;0.77;0.20;;;19.20;99.90;;;;;;4996598;28;20041;-86
2023/09/13 10:17:49;;;;;;;4.78;0.50;;;19.20;99.90;;;;;;4999411;28;20062;-86
2023/09/13 10:20:17;;;;;;;1.60;0.20;;;19.30;99.90;;;;;;4995361;28;20023;-87
2023/09/13 10:22:45;;;;;;;1.10;0.20;;;19.50;99.90;;;;;;4975187;28;20038;-86
2023/09/13 10:25:14;;;;;;;0.80;0.20;;;19.80;99.90;;;;;;4993712;28;20026;-86
2023/09/13 10:27:42;;;;;;;1.73;0.40;;;20.10;99.90;;;;;;4992210;28;20026;-86
2023/09/13 10:30:11;;;;;;;1.85;0.30;;;20.20;99.90;;;;;;4993684;28;20038;-86
2023/09/13 10:32:43;;;;;;;3.58;0.20;;;20.30;99.90;;;;;;4998419;28;20113;-86
2023/09/13 10:35:11;;;;;;;0.80;0.28;;;20.40;99.90;;;;;;4991229;28;20062;-85
2023/09/13 10:38:03;;;;;;;2.22;0.25;;;20.30;99.90;;;;;;4989465;28;20030;-86
2023/09/13 10:40:34;;;;;;;1.88;0.30;;;20.40;99.90;;;;;;4993126;28;20036;-86
2023/09/13 10:43:01;;;;;;;1.60;0.40;;;20.30;99.90;;;;;;4993203;28;20037;-85
2023/09/13 10:45:27;;;;;;;4.18;0.30;;;20.30;99.90;;;;;;4978191;28;20108;-86
2023/09/13 10:47:54;;;;;;;1.30;0.40;;;20.30;99.90;;;;;;4978438;28;20466;-83
2023/09/13 10:50:20;;;;;;;1.75;0.40;;;20.30;99.90;;;;;;4976818;28;20121;-86
2023/09/13 10:52:46;;;;;;;2.53;0.30;;;20.30;99.90;;;;;;4993604;28;20050;-85
2023/09/13 10:55:13;;;;;;;2.80;0.40;;;20.30;99.90;;;;;;4977048;28;20037;-86
2023/09/13 10:57:40;;;;;;;3.20;0.40;;;20.30;99.90;;;;;;4987959;28;20387;-86
2023/09/13 11:00:10;;;;;;;1.67;0.40;;;20.30;99.90;;;;;;4974786;28;20034;-85
2023/09/13 11:02:43;;;;;;;2.70;0.40;;;20.20;99.90;;;;;;4994507;28;20112;-86
2023/09/13 11:05:10;;;;;;;2.00;0.40;;;20.20;99.90;;;;;;4993889;28;20022;-86
2023/09/13 11:07:48;;;;;;;1.65;0.45;;;20.30;99.90;;;;;;4993684;28;20076;-86
2023/09/13 11:10:16;;;;;;;2.25;0.50;;;20.50;99.90;;;;;;4975930;28;20057;-86
2023/09/13 11:12:44;;;;;;;2.88;0.50;;;20.60;99.90;;;;;;4977964;28;20055;-86
2023/09/13 11:15:14;;;;;;;4.38;0.52;;;20.70;99.90;;;;;;4974746;28;20117;-86
2023/09/13 11:17:41;;;;;;;4.70;0.60;;;20.90;99.90;;;;;;4987693;28;20029;-85
2023/09/13 11:20:28;;;;;;;4.60;0.60;;;20.90;99.90;;;;;;4994307;28;20038;-85
2023/09/13 11:23:10;;;;;;;3.25;1.02;;;20.90;99.90;;;;;;4973256;28;20057;-85
2023/09/13 11:25:48;;;;;;;3.72;0.60;;;20.80;99.90;;;;;;4976614;28;20053;-85
2023/09/13 11:28:29;;;;;;;5.90;0.80;;;20.70;99.90;;;;;;4994396;28;20554;-86
2023/09/13 11:30:58;;;;;;;5.40;0.60;;;20.70;99.90;;;;;;4987976;28;20106;-85
2023/09/13 11:33:26;;;;;;;3.85;0.75;;;20.60;99.90;;;;;;4992401;28;20018;-84
2023/09/13 11:35:51;;;;;;;5.15;0.70;;;20.60;99.90;;;;;;4978630;28;20065;-84
2023/09/13 11:38:17;;;;;;;4.65;0.60;;;20.40;99.90;;;;;;4976081;28;20054;-84
2023/09/13 11:40:47;;;;;;;4.82;0.75;;;20.40;99.90;;;;;;4988251;28;20419;-85
2023/09/13 11:43:21;;;;;;;2.17;0.70;;;20.30;99.90;;;;;;4957803;28;20023;-84
2023/09/13 11:45:48;;;;;;;2.88;0.50;;;20.30;99.90;;;;;;4980857;28;20022;-84
2023/09/13 11:48:19;;;;;;;2.70;0.60;;;20.20;99.90;;;;;;4974806;28;20069;-85
2023/09/13 11:50:48;;;;;;;2.00;0.55;;;20.30;99.90;;;;;;4993276;28;20038;-86
2023/09/13 11:53:20;;;;;;;2.15;0.60;;;20.50;99.90;;;;;;4966898;28;20035;-84
2023/09/13 11:56:04;;;;;;;2.38;0.40;;;20.70;99.90;;;;;;4990124;28;20038;-85
2023/09/13 11:58:36;;;;;;;2.35;0.52;;;20.90;99.90;;;;;;4980616;28;20034;-86
2023/09/13 12:01:04;;;;;;;2.15;0.50;;;20.80;99.90;;;;;;4991527;28;20612;-85
2023/09/13 12:03:32;;;;;;;4.63;0.70;;;20.70;99.90;;;;;;5002671;28;20030;-85
2023/09/13 12:05:57;;;;;;;2.78;0.60;;;20.60;99.90;;;;;;4999212;28;20054;-86
2023/09/13 12:08:27;;;;;;;4.78;0.60;;;20.70;99.90;;;;;;4992384;28;20064;-85
2023/09/13 12:10:56;;;;;;;3.67;0.90;;;20.70;99.90;;;;;;4985137;28;20076;-85
2023/09/13 12:13:46;;;;;;;5.03;0.70;;;20.80;99.90;;;;;;4993607;28;20109;-85
2023/09/13 12:16:12;;;;;;;3.40;0.75;;;20.90;99.90;;;;;;4998057;28;20478;-85
2023/09/13 12:18:39;;;;;;;3.95;0.77;;;20.90;99.90;;;;;;4976031;28;20113;-85
2023/09/13 12:21:06;;;;;;;3.70;0.52;;;21.00;99.90;;;;;;4975111;28;20410;-85
2023/09/13 12:23:37;;;;;;;3.80;0.60;;;20.90;99.90;;;;;;4976465;28;20052;-85
2023/09/13 12:26:08;;;;;;;5.65;0.60;;;20.80;99.90;;;;;;4991742;28;20541;-86
2023/09/13 12:28:36;;;;;;;3.53;0.53;;;20.80;99.90;;;;;;4992586;28;20423;-85
2023/09/13 12:31:10;;;;;;;2.63;0.40;;;20.80;99.90;;;;;;4975769;28;20030;-86
2023/09/13 12:33:51;;;;;;;2.90;0.38;;;21.00;99.90;;;;;;5008718;28;20033;-86